createdAt,value
2023-05-23T00:00:55.422Z,94942.00
2023-05-23T00:01:55.491Z,94936.00
2023-05-23T00:02:55.491Z,94940.00
2023-05-23T00:03:55.471Z,94938.00
2023-05-23T00:04:55.384Z,94940.00
2023-05-23T00:05:55.370Z,94940.00
2023-05-23T00:06:55.374Z,94944.00
2023-05-23T00:07:55.363Z,94942.00
2023-05-23T00:08:55.355Z,94938.00
2023-05-23T00:09:55.346Z,94944.00
2023-05-23T00:10:55.339Z,94944.00
2023-05-23T00:11:55.451Z,94944.00
2023-05-23T00:12:55.331Z,94942.00
2023-05-23T00:13:55.316Z,94946.00
2023-05-23T00:14:55.335Z,94944.00
2023-05-23T00:15:55.301Z,94948.00
2023-05-23T00:16:55.362Z,94948.00
2023-05-23T00:17:55.318Z,94948.00
2023-05-23T00:18:55.303Z,94948.00
2023-05-23T00:19:55.271Z,94948.00
2023-05-23T00:20:55.267Z,94950.00
2023-05-23T00:21:55.256Z,94952.00
2023-05-23T00:22:55.248Z,94948.00
2023-05-23T00:23:55.237Z,94952.00
2023-05-23T00:24:55.233Z,94950.00
2023-05-23T00:25:55.252Z,94950.00
2023-05-23T00:26:55.221Z,94954.00
2023-05-23T00:27:55.362Z,94952.00
2023-05-23T00:28:55.211Z,94950.00
2023-05-23T00:29:55.197Z,94956.00
2023-05-23T00:30:55.200Z,94954.00
2023-05-23T00:31:55.187Z,94954.00
2023-05-23T00:32:55.235Z,94952.00
2023-05-23T00:33:55.181Z,94954.00
2023-05-23T00:34:55.164Z,94954.00
2023-05-23T00:35:55.165Z,94954.00
2023-05-23T00:36:55.152Z,94954.00
2023-05-23T00:37:55.145Z,94954.00
2023-05-23T00:38:55.144Z,94954.00
2023-05-23T00:39:55.128Z,94954.00
2023-05-23T00:40:55.133Z,94954.00
2023-05-23T00:41:55.115Z,94956.00
2023-05-23T00:42:55.102Z,94957.00
2023-05-23T00:43:55.214Z,94954.00
2023-05-23T00:44:55.091Z,94957.00
2023-05-23T00:45:55.090Z,94956.00
2023-05-23T00:46:55.549Z,94957.00
2023-05-23T00:47:55.095Z,94957.00
2023-05-23T00:48:55.070Z,94954.00
2023-05-23T00:49:55.064Z,94957.00
2023-05-23T00:50:55.054Z,94956.00
2023-05-23T00:51:55.058Z,94956.00
2023-05-23T00:52:55.049Z,94956.00
2023-05-23T00:53:55.029Z,94954.00
2023-05-23T00:54:55.024Z,94954.00
2023-05-23T00:55:55.032Z,94956.00
2023-05-23T00:56:55.039Z,94956.00
2023-05-23T00:57:55.005Z,94954.00
2023-05-23T00:58:55.004Z,94952.00
2023-05-23T00:59:55.114Z,94952.00
2023-05-23T01:00:55.006Z,94954.00
2023-05-23T01:01:55.039Z,94954.00
2023-05-23T01:02:55.189Z,94952.00
2023-05-23T01:03:55.041Z,94956.00
2023-05-23T01:04:54.949Z,94954.00
2023-05-23T01:05:54.960Z,94956.00
2023-05-23T01:06:54.947Z,94957.00
2023-05-23T01:07:54.927Z,94956.00
2023-05-23T01:08:54.922Z,94954.00
2023-05-23T01:09:54.916Z,94959.00
2023-05-23T01:10:54.916Z,94957.00
2023-05-23T01:11:54.915Z,94959.00
2023-05-23T01:12:54.914Z,94964.00
2023-05-23T01:13:54.912Z,94964.00
2023-05-23T01:14:54.910Z,94964.00
2023-05-23T01:15:55.062Z,94964.00
2023-05-23T01:16:54.938Z,94964.00
2023-05-23T01:17:54.953Z,94965.00
2023-05-23T01:18:55.225Z,94965.00
2023-05-23T01:19:54.916Z,94967.00
2023-05-23T01:20:54.911Z,94967.00
2023-05-23T01:21:54.912Z,94962.00
2023-05-23T01:22:54.914Z,94962.00
2023-05-23T01:23:54.913Z,94964.00
2023-05-23T01:24:54.924Z,94962.00
2023-05-23T01:25:54.918Z,94967.00
2023-05-23T01:26:54.915Z,94964.00
2023-05-23T01:27:54.919Z,94967.00
2023-05-23T01:28:54.936Z,94964.00
2023-05-23T01:29:54.916Z,94967.00
2023-05-23T01:30:54.918Z,94967.00
2023-05-23T01:31:55.102Z,94967.00
2023-05-23T01:32:54.966Z,94967.00
2023-05-23T01:33:54.906Z,94967.00
2023-05-23T01:34:54.911Z,94967.00
2023-05-23T01:35:54.899Z,94965.00
2023-05-23T01:36:54.894Z,94965.00
2023-05-23T01:37:54.919Z,94965.00
2023-05-23T01:38:54.908Z,94965.00
2023-05-23T01:39:54.897Z,94967.00
2023-05-23T01:40:54.896Z,94967.00
2023-05-23T01:41:54.931Z,94969.00
2023-05-23T01:42:54.895Z,94971.00
2023-05-23T01:43:54.909Z,94971.00
2023-05-23T01:44:54.903Z,94969.00
2023-05-23T01:45:54.964Z,94969.00
2023-05-23T01:46:54.905Z,94971.00
2023-05-23T01:47:55.074Z,94973.00
2023-05-23T01:48:54.926Z,94971.00
2023-05-23T01:49:54.919Z,94971.00
2023-05-23T01:50:54.933Z,94971.00
2023-05-23T01:51:54.928Z,94971.00
2023-05-23T01:52:54.945Z,94971.00
2023-05-23T01:53:54.937Z,94973.00
2023-05-23T01:54:54.929Z,94973.00
2023-05-23T01:55:54.932Z,94973.00
2023-05-23T01:56:54.939Z,94971.00
2023-05-23T01:57:54.926Z,94971.00
2023-05-23T01:58:54.935Z,94975.00
2023-05-23T01:59:54.956Z,94971.00
2023-05-23T02:00:54.940Z,94971.00
2023-05-23T02:01:54.940Z,94971.00
2023-05-23T02:02:54.990Z,94975.00
2023-05-23T02:03:55.085Z,94971.00
2023-05-23T02:04:55.020Z,94973.00
2023-05-23T02:05:54.963Z,94975.00
2023-05-23T02:06:54.954Z,94969.00
2023-05-23T02:07:54.965Z,94969.00
2023-05-23T02:08:54.971Z,94969.00
2023-05-23T02:09:54.977Z,94971.00
2023-05-23T02:10:54.976Z,94975.00
2023-05-23T02:11:54.998Z,94975.00
2023-05-23T02:12:54.995Z,94975.00
2023-05-23T02:13:54.987Z,94977.00
2023-05-23T02:14:55.002Z,94977.00
2023-05-23T02:15:54.999Z,94979.00
2023-05-23T02:16:55.083Z,94981.00
2023-05-23T02:17:55.054Z,94981.00
2023-05-23T02:18:55.087Z,94979.00
2023-05-23T02:19:55.157Z,94981.00
2023-05-23T02:20:55.033Z,94983.00
2023-05-23T02:21:55.034Z,94985.00
2023-05-23T02:22:55.029Z,94983.00
2023-05-23T02:23:55.045Z,94989.00
2023-05-23T02:24:55.065Z,94989.00
2023-05-23T02:25:55.049Z,94991.00
2023-05-23T02:26:55.049Z,94985.00
2023-05-23T02:27:55.061Z,94989.00
2023-05-23T02:28:55.083Z,94987.00
2023-05-23T02:29:55.077Z,94981.00
2023-05-23T02:30:55.080Z,94981.00
2023-05-23T02:31:55.080Z,94981.00
2023-05-23T02:32:55.119Z,94983.00
2023-05-23T02:33:55.097Z,94985.00
2023-05-23T02:34:57.282Z,94985.00
2023-05-23T02:35:55.232Z,94987.00
2023-05-23T02:36:55.098Z,94989.00
2023-05-23T02:37:55.090Z,94991.00
2023-05-23T02:38:55.079Z,94989.00
2023-05-23T02:39:55.104Z,94991.00
2023-05-23T02:40:55.065Z,94993.00
2023-05-23T02:41:55.059Z,94989.00
2023-05-23T02:42:55.051Z,94989.00
2023-05-23T02:43:55.043Z,94991.00
2023-05-23T02:44:55.037Z,94989.00
2023-05-23T02:45:55.081Z,94995.00
2023-05-23T02:46:55.024Z,94991.00
2023-05-23T02:47:55.031Z,94991.00
2023-05-23T02:48:55.011Z,94991.00
2023-05-23T02:49:55.000Z,94993.00
2023-05-23T02:50:55.001Z,94995.00
2023-05-23T02:51:55.109Z,94995.00
2023-05-23T02:52:54.979Z,94995.00
2023-05-23T02:53:54.981Z,94997.00
2023-05-23T02:54:54.974Z,94999.00
2023-05-23T02:55:54.980Z,94999.00
2023-05-23T02:56:54.961Z,94999.00
2023-05-23T02:57:54.969Z,94999.00
2023-05-23T02:58:54.972Z,95001.00
2023-05-23T02:59:54.952Z,95001.00
2023-05-23T03:00:54.934Z,95003.00
2023-05-23T03:01:54.979Z,95003.00
2023-05-23T03:02:55.005Z,95003.00
2023-05-23T03:03:54.975Z,95001.00
2023-05-23T03:04:54.910Z,95003.00
2023-05-23T03:05:54.907Z,95001.00
2023-05-23T03:06:54.888Z,95001.00
2023-05-23T03:07:55.018Z,95003.00
2023-05-23T03:08:54.957Z,94999.00
2023-05-23T03:09:54.871Z,95001.00
2023-05-23T03:10:54.871Z,95001.00
2023-05-23T03:11:54.856Z,95001.00
2023-05-23T03:12:54.855Z,95003.00
2023-05-23T03:13:54.906Z,95001.00
2023-05-23T03:14:54.832Z,95003.00
2023-05-23T03:15:54.846Z,95004.00
2023-05-23T03:16:54.818Z,95004.00
2023-05-23T03:17:54.848Z,95003.00
2023-05-23T03:18:54.852Z,94999.00
2023-05-23T03:19:54.808Z,95003.00
2023-05-23T03:20:54.792Z,95001.00
2023-05-23T03:21:54.784Z,95001.00
2023-05-23T03:22:54.779Z,95004.00
2023-05-23T03:23:54.901Z,95003.00
2023-05-23T03:24:54.762Z,95001.00
2023-05-23T03:25:54.754Z,95001.00
2023-05-23T03:26:54.750Z,95001.00
2023-05-23T03:27:54.742Z,94999.00
2023-05-23T03:28:54.726Z,94999.00
2023-05-23T03:29:54.715Z,94999.00
2023-05-23T03:30:54.710Z,94999.00
2023-05-23T03:31:54.818Z,94999.00
2023-05-23T03:32:54.756Z,94999.00
2023-05-23T03:33:54.691Z,95001.00
2023-05-23T03:34:54.696Z,95004.00
2023-05-23T03:35:54.678Z,95006.00
2023-05-23T03:36:54.676Z,95008.00
2023-05-23T03:37:54.682Z,95008.00
2023-05-23T03:38:54.648Z,95008.00
2023-05-23T03:39:54.775Z,95008.00
2023-05-23T03:40:54.641Z,95006.00
2023-05-23T03:41:54.634Z,95008.00
2023-05-23T03:42:54.615Z,95008.00
2023-05-23T03:43:54.608Z,95010.00
2023-05-23T03:44:54.604Z,95010.00
2023-05-23T03:45:54.665Z,95012.00
2023-05-23T03:46:54.606Z,95014.00
2023-05-23T03:47:54.621Z,95016.00
2023-05-23T03:48:54.576Z,95016.00
2023-05-23T03:49:54.587Z,95020.00
2023-05-23T03:50:54.596Z,95020.00
2023-05-23T03:51:54.560Z,95020.00
2023-05-23T03:52:54.602Z,95018.00
2023-05-23T03:53:54.537Z,95022.00
2023-05-23T03:54:54.554Z,95026.00
2023-05-23T03:55:54.655Z,95028.00
2023-05-23T03:56:54.523Z,95030.00
2023-05-23T03:57:54.626Z,95032.00
2023-05-23T03:58:54.529Z,95032.00
2023-05-23T03:59:54.518Z,95032.00
2023-05-23T04:00:54.503Z,95032.00
2023-05-23T04:01:54.561Z,95030.00
2023-05-23T04:02:54.687Z,95030.00
2023-05-23T04:03:54.604Z,95034.00
2023-05-23T04:04:54.535Z,95034.00
2023-05-23T04:05:54.549Z,95038.00
2023-05-23T04:06:54.554Z,95036.00
2023-05-23T04:07:54.565Z,95038.00
2023-05-23T04:08:54.572Z,95038.00
2023-05-23T04:09:54.590Z,95040.00
2023-05-23T04:10:54.606Z,95042.00
2023-05-23T04:11:54.749Z,95040.00
2023-05-23T04:12:54.635Z,95044.00
2023-05-23T04:13:54.640Z,95042.00
2023-05-23T04:14:54.639Z,95042.00
2023-05-23T04:15:54.696Z,95040.00
2023-05-23T04:16:54.643Z,95040.00
2023-05-23T04:17:54.674Z,95042.00
2023-05-23T04:18:54.737Z,95042.00
2023-05-23T04:19:54.659Z,95042.00
2023-05-23T04:20:54.678Z,95042.00
2023-05-23T04:21:54.679Z,95044.00
2023-05-23T04:22:54.697Z,95044.00
2023-05-23T04:23:55.271Z,95046.00
2023-05-23T04:24:54.712Z,95046.00
2023-05-23T04:25:54.738Z,95046.00
2023-05-23T04:26:54.738Z,95048.00
2023-05-23T04:27:54.892Z,95048.00
2023-05-23T04:28:54.780Z,95050.00
2023-05-23T04:29:54.781Z,95051.00
2023-05-23T04:30:54.855Z,95051.00
2023-05-23T04:31:54.808Z,95055.00
2023-05-23T04:32:54.918Z,95055.00
2023-05-23T04:33:54.852Z,95057.00
2023-05-23T04:34:54.844Z,95057.00
2023-05-23T04:35:54.846Z,95061.00
2023-05-23T04:36:54.871Z,95059.00
2023-05-23T04:37:54.876Z,95063.00
2023-05-23T04:38:54.930Z,95063.00
2023-05-23T04:39:54.907Z,95061.00
2023-05-23T04:40:54.927Z,95059.00
2023-05-23T04:41:54.922Z,95061.00
2023-05-23T04:42:54.939Z,95061.00
2023-05-23T04:43:55.311Z,95065.00
2023-05-23T04:44:54.965Z,95065.00
2023-05-23T04:45:54.968Z,95067.00
2023-05-23T04:46:55.028Z,95067.00
2023-05-23T04:47:55.088Z,95069.00
2023-05-23T04:48:55.051Z,95073.00
2023-05-23T04:49:55.021Z,95071.00
2023-05-23T04:50:55.026Z,95073.00
2023-05-23T04:51:55.055Z,95075.00
2023-05-23T04:52:55.064Z,95073.00
2023-05-23T04:53:55.089Z,95077.00
2023-05-23T04:54:55.104Z,95077.00
2023-05-23T04:55:55.112Z,95075.00
2023-05-23T04:56:55.123Z,95075.00
2023-05-23T04:57:55.123Z,95075.00
2023-05-23T04:58:55.132Z,95075.00
2023-05-23T04:59:55.257Z,95077.00
2023-05-23T05:00:55.176Z,95079.00
2023-05-23T05:01:55.196Z,95079.00
2023-05-23T05:02:55.254Z,95081.00
2023-05-23T05:03:55.225Z,95083.00
2023-05-23T05:04:55.201Z,95085.00
2023-05-23T05:05:55.230Z,95087.00
2023-05-23T05:06:55.225Z,95089.00
2023-05-23T05:07:55.269Z,95091.00
2023-05-23T05:08:55.254Z,95091.00
2023-05-23T05:09:55.284Z,95089.00
2023-05-23T05:10:55.273Z,95089.00
2023-05-23T05:11:55.287Z,95093.00
2023-05-23T05:12:55.314Z,95097.00
2023-05-23T05:13:55.326Z,95095.00
2023-05-23T05:14:55.764Z,95095.00
2023-05-23T05:15:55.462Z,95095.00
2023-05-23T05:16:55.372Z,95097.00
2023-05-23T05:17:55.403Z,95097.00
2023-05-23T05:18:55.432Z,95097.00
2023-05-23T05:19:55.761Z,95097.00
2023-05-23T05:20:55.416Z,95098.00
2023-05-23T05:21:55.420Z,95095.00
2023-05-23T05:22:55.437Z,95093.00
2023-05-23T05:23:55.456Z,95095.00
2023-05-23T05:24:55.466Z,95095.00
2023-05-23T05:25:55.491Z,95091.00
2023-05-23T05:26:55.500Z,95093.00
2023-05-23T05:27:55.500Z,95091.00
2023-05-23T05:28:55.525Z,95091.00
2023-05-23T05:29:55.506Z,95091.00
2023-05-23T05:30:55.658Z,95091.00
2023-05-23T05:31:55.664Z,95093.00
2023-05-23T05:32:55.584Z,95091.00
2023-05-23T05:33:55.581Z,95091.00
2023-05-23T05:34:55.563Z,95095.00
2023-05-23T05:35:56.267Z,95095.00
2023-05-23T05:36:55.588Z,95097.00
2023-05-23T05:37:55.603Z,95098.00
2023-05-23T05:38:55.602Z,95098.00
2023-05-23T05:39:55.638Z,95098.00
2023-05-23T05:40:55.622Z,95098.00
2023-05-23T05:41:55.624Z,95097.00
2023-05-23T05:42:55.626Z,95097.00
2023-05-23T05:43:55.644Z,95098.00
2023-05-23T05:44:55.780Z,95098.00
2023-05-23T05:45:55.826Z,95095.00
2023-05-23T05:46:55.700Z,95093.00
2023-05-23T05:47:55.807Z,95097.00
2023-05-23T05:48:55.828Z,95093.00
2023-05-23T05:49:55.649Z,95093.00
2023-05-23T05:50:55.683Z,95093.00
2023-05-23T05:51:55.659Z,95093.00
2023-05-23T05:52:55.662Z,95097.00
2023-05-23T05:53:55.832Z,95100.00
2023-05-23T05:54:55.662Z,95098.00
2023-05-23T05:55:55.664Z,95106.00
2023-05-23T05:57:11.277Z,95103.00
2023-05-23T05:57:58.885Z,95100.00
2023-05-23T05:58:56.073Z,95105.00
2023-05-23T05:59:55.651Z,95106.00
2023-05-23T06:00:55.651Z,95105.00
2023-05-23T06:01:55.798Z,95108.00
2023-05-23T06:02:55.771Z,95108.00
2023-05-23T06:03:56.834Z,95108.00
2023-05-23T06:04:55.790Z,95110.00
2023-05-23T06:07:56.283Z,95112.00
2023-05-23T06:09:56.188Z,95112.00
2023-05-23T06:10:56.339Z,95116.00
2023-05-23T06:11:55.940Z,95118.00
2023-05-23T06:12:56.135Z,95120.00
2023-05-23T06:13:55.875Z,95120.00
2023-05-23T06:14:56.377Z,95122.00
2023-05-23T06:15:56.028Z,95122.00
2023-05-23T06:16:55.867Z,95128.00
2023-05-23T06:17:57.102Z,95130.00
2023-05-23T06:18:56.287Z,95130.00
2023-05-23T06:19:56.355Z,95130.00
2023-05-23T06:20:56.442Z,95132.00
2023-05-23T06:21:55.950Z,95134.00
2023-05-23T06:22:56.355Z,95134.00
2023-05-23T06:23:56.208Z,95134.00
2023-05-23T06:24:56.323Z,95138.00
2023-05-23T06:25:55.975Z,95134.00
2023-05-23T06:26:56.204Z,95136.00
2023-05-23T06:27:56.190Z,95142.00
2023-05-23T06:28:56.274Z,95144.00
2023-05-23T06:29:56.392Z,95144.00
2023-05-23T06:30:56.188Z,95145.00
2023-05-23T06:31:56.050Z,95147.00
2023-05-23T06:32:56.287Z,95149.00
2023-05-23T06:33:56.223Z,95153.00
2023-05-23T06:34:56.153Z,95153.00
2023-05-23T06:35:56.439Z,95157.00
2023-05-23T06:36:57.035Z,95159.00
2023-05-23T06:37:56.298Z,95159.00
2023-05-23T06:38:55.937Z,95157.00
2023-05-23T06:39:56.205Z,95155.00
2023-05-23T06:40:56.220Z,95159.00
2023-05-23T06:41:57.324Z,95163.00
2023-05-23T06:43:05.355Z,95161.00
2023-05-23T06:43:56.245Z,95165.00
2023-05-23T06:46:12.093Z,95163.00
2023-05-23T06:46:56.181Z,95165.00
2023-05-23T06:47:56.414Z,95167.00
2023-05-23T06:49:15.048Z,95175.00
2023-05-23T06:49:57.713Z,95177.00
2023-05-23T06:50:56.378Z,95175.00
2023-05-23T06:51:56.702Z,95167.00
2023-05-23T06:52:56.883Z,95167.00
2023-05-23T06:53:56.182Z,95167.00
2023-05-23T06:54:56.288Z,95175.00
2023-05-23T06:55:56.176Z,95167.00
2023-05-23T06:56:56.306Z,95177.00
2023-05-23T06:57:56.014Z,95175.00
2023-05-23T06:58:56.289Z,95163.00
2023-05-23T06:59:56.323Z,95175.00
2023-05-23T07:00:56.170Z,95175.00
2023-05-23T07:01:56.395Z,95175.00
2023-05-23T07:02:57.152Z,95175.00
2023-05-23T07:03:56.281Z,95179.00
2023-05-23T07:04:56.886Z,95179.00
2023-05-23T07:05:56.387Z,95183.00
2023-05-23T07:06:56.367Z,95183.00
2023-05-23T07:07:56.737Z,95181.00
2023-05-23T07:08:56.339Z,95183.00
2023-05-23T07:09:56.348Z,95183.00
2023-05-23T07:10:56.761Z,95185.00
2023-05-23T07:11:56.524Z,95185.00
2023-05-23T07:12:56.664Z,95187.00
2023-05-23T07:13:56.391Z,95189.00
2023-05-23T07:14:56.299Z,95191.00
2023-05-23T07:15:56.314Z,95187.00
2023-05-23T07:16:56.399Z,95187.00
2023-05-23T07:17:56.402Z,95189.00
2023-05-23T07:18:56.453Z,95187.00
2023-05-23T07:19:56.461Z,95187.00
2023-05-23T07:20:56.471Z,95187.00
2023-05-23T07:21:56.830Z,95187.00
2023-05-23T07:22:56.541Z,95185.00
2023-05-23T07:23:56.698Z,95185.00
2023-05-23T07:24:56.671Z,95183.00
2023-05-23T07:26:02.376Z,95183.00
2023-05-23T07:26:56.650Z,95185.00
2023-05-23T07:27:56.631Z,95181.00
2023-05-23T07:28:56.632Z,95183.00
2023-05-23T07:29:56.832Z,95181.00
2023-05-23T07:30:56.621Z,95183.00
2023-05-23T07:31:57.619Z,95187.00
2023-05-23T07:32:56.818Z,95185.00
2023-05-23T07:33:56.823Z,95189.00
2023-05-23T07:34:56.843Z,95187.00
2023-05-23T07:37:12.221Z,95191.00
2023-05-23T07:37:56.812Z,95193.00
2023-05-23T07:38:59.823Z,95189.00
2023-05-23T07:39:56.813Z,95193.00
2023-05-23T07:41:10.677Z,95191.00
2023-05-23T07:42:56.551Z,95191.00
2023-05-23T07:43:57.611Z,95195.00
2023-05-23T07:44:56.812Z,95197.00
2023-05-23T07:45:56.524Z,95195.00
2023-05-23T07:46:56.673Z,95198.00
2023-05-23T07:47:56.849Z,95197.00
2023-05-23T07:48:56.493Z,95197.00
2023-05-23T07:49:56.818Z,95200.00
2023-05-23T07:50:56.473Z,95198.00
2023-05-23T07:51:56.466Z,95200.00
2023-05-23T07:53:12.090Z,95200.00
2023-05-23T07:53:59.645Z,95202.00
2023-05-23T07:54:56.844Z,95198.00
2023-05-23T07:55:56.454Z,95200.00
2023-05-23T07:56:56.505Z,95200.00
2023-05-23T07:57:56.458Z,95200.00
2023-05-23T07:58:56.415Z,95200.00
2023-05-23T07:59:56.814Z,95202.00
2023-05-23T08:00:56.432Z,95204.00
2023-05-23T08:03:12.100Z,95208.00
2023-05-23T08:03:59.615Z,95212.00
2023-05-23T08:04:57.390Z,95212.00
2023-05-23T08:05:56.827Z,95212.00
2023-05-23T08:07:55.571Z,95214.00
2023-05-23T08:08:56.351Z,95216.00
2023-05-23T08:09:56.821Z,95214.00
2023-05-23T08:10:56.372Z,95214.00
2023-05-23T08:11:56.322Z,95212.00
2023-05-23T08:12:56.534Z,95218.00
2023-05-23T08:13:56.309Z,95218.00
2023-05-23T08:14:56.337Z,95214.00
2023-05-23T08:15:59.564Z,95216.00
2023-05-23T08:16:56.368Z,95214.00
2023-05-23T08:17:56.363Z,95212.00
2023-05-23T08:18:56.326Z,95214.00
2023-05-23T08:19:56.343Z,95214.00
2023-05-23T08:21:03.684Z,95216.00
2023-05-23T08:21:56.264Z,95214.00
2023-05-23T08:22:56.297Z,95214.00
2023-05-23T08:23:56.240Z,95218.00
2023-05-23T08:24:56.234Z,95218.00
2023-05-23T08:25:57.233Z,95218.00
2023-05-23T08:26:56.240Z,95220.00
2023-05-23T08:27:56.215Z,95222.00
2023-05-23T08:28:56.206Z,95220.00
2023-05-23T08:29:56.329Z,95222.00
2023-05-23T08:30:56.195Z,95220.00
2023-05-23T08:31:56.464Z,95224.00
2023-05-23T08:32:56.210Z,95224.00
2023-05-23T08:33:57.171Z,95222.00
2023-05-23T08:34:56.374Z,95220.00
2023-05-23T08:36:03.611Z,95224.00
2023-05-23T08:36:56.259Z,95224.00
2023-05-23T08:37:56.206Z,95224.00
2023-05-23T08:38:56.200Z,95228.00
2023-05-23T08:39:56.387Z,95230.00
2023-05-23T08:40:56.180Z,95232.00
2023-05-23T08:41:56.170Z,95232.00
2023-05-23T08:42:56.244Z,95234.00
2023-05-23T08:43:56.167Z,95238.00
2023-05-23T08:44:56.340Z,95236.00
2023-05-23T08:45:56.166Z,95240.00
2023-05-23T08:46:56.142Z,95240.00
2023-05-23T08:47:56.152Z,95240.00
2023-05-23T08:48:56.131Z,95240.00
2023-05-23T08:49:59.543Z,95244.00
2023-05-23T08:50:56.113Z,95244.00
2023-05-23T08:51:56.116Z,95244.00
2023-05-23T08:52:56.145Z,95244.00
2023-05-23T08:53:59.332Z,95242.00
2023-05-23T08:54:56.093Z,95244.00
2023-05-23T08:55:56.096Z,95242.00
2023-05-23T08:56:57.104Z,95242.00
2023-05-23T08:57:56.122Z,95242.00
2023-05-23T08:58:56.077Z,95240.00
2023-05-23T08:59:56.343Z,95236.00
2023-05-23T09:00:56.048Z,95238.00
2023-05-23T09:01:56.091Z,95240.00
2023-05-23T09:02:56.050Z,95238.00
2023-05-23T09:03:56.024Z,95238.00
2023-05-23T09:04:56.028Z,95236.00
2023-05-23T09:05:56.073Z,95236.00
2023-05-23T09:06:56.014Z,95234.00
2023-05-23T09:07:56.342Z,95232.00
2023-05-23T09:08:56.077Z,95232.00
2023-05-23T09:09:56.359Z,95230.00
2023-05-23T09:10:56.072Z,95228.00
2023-05-23T09:11:56.098Z,95228.00
2023-05-23T09:12:56.126Z,95230.00
2023-05-23T09:13:56.166Z,95228.00
2023-05-23T09:14:56.208Z,95230.00
2023-05-23T09:15:56.241Z,95228.00
2023-05-23T09:16:56.239Z,95230.00
2023-05-23T09:17:56.293Z,95228.00
2023-05-23T09:18:56.317Z,95230.00
2023-05-23T09:19:56.378Z,95226.00
2023-05-23T09:20:56.338Z,95226.00
2023-05-23T09:21:56.330Z,95228.00
2023-05-23T09:22:56.350Z,95224.00
2023-05-23T09:23:56.370Z,95226.00
2023-05-23T09:24:56.851Z,95226.00
2023-05-23T09:25:56.404Z,95224.00
2023-05-23T09:26:56.417Z,95224.00
2023-05-23T09:27:56.446Z,95226.00
2023-05-23T09:28:56.457Z,95224.00
2023-05-23T09:29:56.855Z,95224.00
2023-05-23T09:30:56.512Z,95226.00
2023-05-23T09:31:56.620Z,95226.00
2023-05-23T09:32:57.207Z,95228.00
2023-05-23T09:33:56.564Z,95224.00
2023-05-23T09:34:56.855Z,95226.00
2023-05-23T09:35:56.594Z,95224.00
2023-05-23T09:36:56.618Z,95224.00
2023-05-23T09:37:56.868Z,95220.00
2023-05-23T09:38:56.689Z,95220.00
2023-05-23T09:39:56.945Z,95220.00
2023-05-23T09:40:56.747Z,95216.00
2023-05-23T09:41:56.835Z,95214.00
2023-05-23T09:42:56.826Z,95214.00
2023-05-23T09:43:56.860Z,95212.00
2023-05-23T09:44:57.359Z,95210.00
2023-05-23T09:45:57.361Z,95208.00
2023-05-23T09:46:57.032Z,95208.00
2023-05-23T09:47:57.018Z,95202.00
2023-05-23T09:48:57.064Z,95202.00
2023-05-23T09:49:57.105Z,95200.00
2023-05-23T09:50:57.164Z,95198.00
2023-05-23T09:51:57.172Z,95195.00
2023-05-23T09:52:57.218Z,95195.00
2023-05-23T09:54:00.466Z,95195.00
2023-05-23T09:54:57.274Z,95193.00
2023-05-23T09:55:57.260Z,95193.00
2023-05-23T09:56:58.361Z,95191.00
2023-05-23T09:57:57.234Z,95189.00
2023-05-23T09:58:57.270Z,95185.00
2023-05-23T09:59:57.235Z,95187.00
2023-05-23T10:01:04.863Z,95183.00
2023-05-23T10:01:57.226Z,95183.00
2023-05-23T10:02:57.314Z,95179.00
2023-05-23T10:03:59.664Z,95177.00
2023-05-23T10:04:57.204Z,95177.00
2023-05-23T10:05:57.904Z,95177.00
2023-05-23T10:06:57.215Z,95179.00
2023-05-23T10:07:57.182Z,95179.00
2023-05-23T10:08:57.157Z,95195.00
2023-05-23T10:09:59.044Z,95179.00
2023-05-23T10:10:57.481Z,95177.00
2023-05-23T10:11:57.131Z,95175.00
2023-05-23T10:12:57.390Z,95177.00
2023-05-23T10:13:57.133Z,95175.00
2023-05-23T10:14:57.128Z,95177.00
2023-05-23T10:15:58.220Z,95177.00
2023-05-23T10:16:57.424Z,95177.00
2023-05-23T10:17:57.466Z,95179.00
2023-05-23T10:18:57.122Z,95179.00
2023-05-23T10:19:57.077Z,95177.00
2023-05-23T10:20:57.073Z,95179.00
2023-05-23T10:21:57.380Z,95175.00
2023-05-23T10:22:57.063Z,95175.00
2023-05-23T10:23:57.060Z,95175.00
2023-05-23T10:24:57.373Z,95175.00
2023-05-23T10:25:57.043Z,95175.00
2023-05-23T10:26:57.377Z,95167.00
2023-05-23T10:27:57.079Z,95167.00
2023-05-23T10:28:57.379Z,95163.00
2023-05-23T10:29:57.131Z,95163.00
2023-05-23T10:30:57.193Z,95161.00
2023-05-23T10:31:57.181Z,95159.00
2023-05-23T10:32:57.257Z,95159.00
2023-05-23T10:33:57.382Z,95155.00
2023-05-23T10:34:57.411Z,95155.00
2023-05-23T10:35:57.322Z,95151.00
2023-05-23T10:36:57.374Z,95149.00
2023-05-23T10:37:57.309Z,95151.00
2023-05-23T10:38:57.335Z,95151.00
2023-05-23T10:39:57.495Z,95145.00
2023-05-23T10:40:57.361Z,95140.00
2023-05-23T10:41:57.371Z,95140.00
2023-05-23T10:42:57.371Z,95138.00
2023-05-23T10:43:57.383Z,95138.00
2023-05-23T10:44:58.630Z,95134.00
2023-05-23T10:45:57.441Z,95136.00
2023-05-23T10:46:58.496Z,95132.00
2023-05-23T10:47:57.389Z,95132.00
2023-05-23T10:48:57.378Z,95128.00
2023-05-23T10:49:57.381Z,95128.00
2023-05-23T10:50:57.393Z,95126.00
2023-05-23T10:51:57.369Z,95126.00
2023-05-23T10:52:57.376Z,95124.00
2023-05-23T10:53:57.325Z,95122.00
2023-05-23T10:54:57.338Z,95120.00
2023-05-23T10:55:57.404Z,95124.00
2023-05-23T10:56:57.300Z,95122.00
2023-05-23T10:57:57.299Z,95122.00
2023-05-23T10:58:57.287Z,95122.00
2023-05-23T10:59:57.288Z,95120.00
2023-05-23T11:00:57.383Z,95120.00
2023-05-23T11:01:57.310Z,95118.00
2023-05-23T11:02:57.365Z,95120.00
2023-05-23T11:03:57.469Z,95118.00
2023-05-23T11:04:57.249Z,95118.00
2023-05-23T11:05:57.382Z,95114.00
2023-05-23T11:06:57.250Z,95118.00
2023-05-23T11:07:57.383Z,95114.00
2023-05-23T11:08:57.212Z,95112.00
2023-05-23T11:09:57.385Z,95118.00
2023-05-23T11:10:57.225Z,95116.00
2023-05-23T11:11:57.206Z,95118.00
2023-05-23T11:12:57.421Z,95118.00
2023-05-23T11:13:57.258Z,95120.00
2023-05-23T11:14:57.404Z,95120.00
2023-05-23T11:15:57.212Z,95116.00
2023-05-23T11:16:57.233Z,95116.00
2023-05-23T11:17:58.420Z,95112.00
2023-05-23T11:18:57.418Z,95114.00
2023-05-23T11:20:04.810Z,95116.00
2023-05-23T11:20:57.200Z,95114.00
2023-05-23T11:21:57.176Z,95114.00
2023-05-23T11:22:57.200Z,95108.00
2023-05-23T11:23:57.159Z,95108.00
2023-05-23T11:24:57.421Z,95105.00
2023-05-23T11:25:57.158Z,95106.00
2023-05-23T11:26:57.135Z,95103.00
2023-05-23T11:27:57.403Z,95100.00
2023-05-23T11:28:57.139Z,95097.00
2023-05-23T11:29:58.003Z,95098.00
2023-05-23T11:30:57.121Z,95100.00
2023-05-23T11:31:57.163Z,95103.00
2023-05-23T11:32:57.477Z,95103.00
2023-05-23T11:33:57.089Z,95105.00
2023-05-23T11:34:57.108Z,95100.00
2023-05-23T11:35:57.106Z,95100.00
2023-05-23T11:36:57.160Z,95103.00
2023-05-23T11:38:13.027Z,95103.00
2023-05-23T11:38:57.065Z,95100.00
2023-05-23T11:39:57.433Z,95100.00
2023-05-23T11:40:57.048Z,95098.00
2023-05-23T11:41:57.037Z,95100.00
2023-05-23T11:42:57.050Z,95097.00
2023-05-23T11:43:57.027Z,95095.00
2023-05-23T11:44:57.441Z,95093.00
2023-05-23T11:45:57.058Z,95095.00
2023-05-23T11:46:57.006Z,95093.00
2023-05-23T11:47:57.070Z,95093.00
2023-05-23T11:48:57.007Z,95091.00
2023-05-23T11:49:58.426Z,95091.00
2023-05-23T11:50:56.985Z,95093.00
2023-05-23T11:51:56.977Z,95095.00
2023-05-23T11:52:57.006Z,95093.00